Radiosonde details



Informationen :

Serial : X5211269
Type : Vaisala RS41-NG
Date of production : 22.12.2025
Frequency : 404.600MHz
Launchsite : Boise Air Terminal
Nearest town : Idaho City, US (52.3km)

Altitude (Max) : 33150m at 2026-09-02 18:45:38
Speed (Max) : 144km/h at altitude 10047m

Average speed : 55km/h
Average ascent rate : 5m/s
Average descent rate : -19m/s
Ascent rate (Max) : 8.7m/s
Descent rate (Max): -41.9m/s

First frame :
KE7DJD at 2026-09-02 17:04:50 at altitude 1256m (OG: 1214m)
Last frame :
KE7DJD at 2026-09-02 19:08:04 at altitude 7452m (OG: 7410m)

Flighttime : 2h3m14s
Ascent time : 1h40m48s
Descent time : 22m26s
Uptime : -
Killtimer : 8h8m

Distance (Straight line distance): 92km

Distance (Route):


Frames : 349


Measurement :

Temperature : -25.8°C
Humidity : 26.1%
Pressure : 0hPa


Vertical profile (SkewT) :


Elevation profile :



Receiving stations :


Receiver Frames First received Last received
KE7DJD 349 2026-09-02 17:04:50 2026-09-02 19:08:04

Share per receiver :



All frames :


Receiver Date Latitude Longitude Direction Speed Altitude Climb Temperature Humidity Pressure Voltage Killtimer Uptime BKT XDATA
KE7DJD2026-09-02 19:08:0444.00403-115.2284277°108km/h7452m-10.5m/s-25.8°C26.1%0hPa0V08:08:0000:00:0000:00:00
KE7DJD2026-09-02 19:07:4244.00281-115.2362780°115km/h7675m-10.1m/s-27.5°C36.4%0hPa0V08:08:0000:00:0000:00:00
KE7DJD2026-09-02 19:07:2144.00140-115.2446475°119km/h7904m-10.9m/s-28.7°C23.9%0hPa0V08:08:0000:00:0000:00:00
KE7DJD2026-09-02 19:07:0143.99949-115.2525371°120km/h8124m-11.1m/s-30.8°C26.1%0hPa0V08:09:0000:00:0000:00:00
KE7DJD2026-09-02 19:06:4043.99722-115.2608470°120km/h8361m-11.6m/s-32.9°C31.3%0hPa0V08:09:0000:00:0000:00:00
KE7DJD2026-09-02 19:06:1943.99500-115.2691570°120km/h8593m-10.6m/s-35.0°C36.9%0hPa0V08:09:0000:00:0000:00:00
KE7DJD2026-09-02 19:05:5843.99262-115.2773669°119km/h8812m-10.5m/s-37.0°C37.7%0hPa0V08:10:0000:00:0000:00:00
KE7DJD2026-09-02 19:05:3743.99015-115.2852468°115km/h9028m-9.9m/s-38.9°C35.5%0hPa0V08:10:0000:00:0000:00:00
KE7DJD2026-09-02 19:05:1743.98797-115.2924969°110km/h9232m-10.7m/s-40.5°C38.4%0hPa0V08:11:0000:00:0000:00:00
KE7DJD2026-09-02 19:04:5643.98566-115.3000267°115km/h9433m-9.1m/s-42.1°C40.5%0hPa0V08:11:0000:00:0000:00:00
KE7DJD2026-09-02 19:04:3643.98323-115.3074766°119km/h9610m-9.1m/s-43.6°C42.4%0hPa0V08:12:0000:00:0000:00:00
KE7DJD2026-09-02 19:04:1543.98046-115.3155367°120km/h9794m-8.9m/s-45.2°C47.2%0hPa0V08:12:0000:00:0000:00:00
KE7DJD2026-09-02 19:03:5543.97787-115.3234265°126km/h9974m-8.9m/s-46.6°C52.1%0hPa0V08:12:0000:00:0000:00:00
KE7DJD2026-09-02 19:03:3443.97491-115.3317864°126km/h10166m-9.4m/s-48.1°C49.2%0hPa0V08:13:0000:00:0000:00:00
KE7DJD2026-09-02 19:03:1343.97183-115.3401064°124km/h10362m-9.5m/s-49.5°C50.6%0hPa0V08:13:0000:00:0000:00:00
KE7DJD2026-09-02 19:02:5343.96906-115.3477863°124km/h10553m-9.6m/s-50.3°C50.8%0hPa0V08:14:0000:00:0000:00:00
KE7DJD2026-09-02 19:02:3243.96573-115.3559062°130km/h10762m-10.2m/s-51.8°C48.6%0hPa0V08:14:0000:00:0000:00:00
KE7DJD2026-09-02 19:02:1143.96244-115.3641366°124km/h10981m-10.8m/s-50.5°C15.2%0hPa0V08:14:0000:00:0000:00:00
KE7DJD2026-09-02 19:01:5043.96005-115.3720768°111km/h11201m-10.5m/s-50.1°C9.1%0hPa0V08:14:0000:00:0000:00:00
KE7DJD2026-09-02 19:01:3043.95784-115.3790563°106km/h11416m-10.8m/s-50.6°C5.4%0hPa0V08:14:0000:00:0000:00:00
KE7DJD2026-09-02 19:01:0943.95526-115.3857565°99km/h11645m-11.2m/s-48.8°C3.4%0hPa0V08:15:0000:00:0000:00:00
KE7DJD2026-09-02 19:00:4843.95284-115.3924465°97km/h11873m-10.8m/s-49.8°C2.8%0hPa0V08:15:0000:00:0000:00:00
KE7DJD2026-09-02 19:00:2843.95069-115.3980960°88km/h12084m-10.2m/s-49.2°C2.0%0hPa0V08:15:0000:00:0000:00:00
KE7DJD2026-09-02 19:00:0743.94827-115.4032156°78km/h12309m-10.8m/s-49.2°C1.4%0hPa0V08:16:0000:00:0000:00:00
KE7DJD2026-09-02 18:59:4743.94611-115.4079061°77km/h12531m-11.4m/s-49.4°C1.3%0hPa0V08:16:0000:00:0000:00:00
KE7DJD2026-09-02 18:59:2643.94399-115.4131964°80km/h12768m-11.6m/s-48.5°C1.2%0hPa0V08:17:0000:00:0000:00:00
KE7DJD2026-09-02 18:59:0543.94211-115.4179557°69km/h13010m-11.8m/s-49.6°C1.2%0hPa0V08:17:0000:00:0000:00:00
KE7DJD2026-09-02 18:58:4443.93978-115.4221046°71km/h13253m-12.2m/s-49.7°C1.3%0hPa0V08:17:0000:00:0000:00:00
KE7DJD2026-09-02 18:58:2343.93695-115.4259546°75km/h13500m-11.6m/s-50.8°C1.4%0hPa0V08:18:0000:00:0000:00:00
KE7DJD2026-09-02 18:57:4243.93184-115.4334444°62km/h14012m-12.8m/s-50.7°C1.2%0hPa0V08:19:0000:00:0000:00:00
KE7DJD2026-09-02 18:57:2143.92951-115.4360140°64km/h14259m-11.8m/s-51.3°C1.2%0hPa0V08:19:0000:00:0000:00:00
KE7DJD2026-09-02 18:57:0043.92675-115.4393444°68km/h14517m-12.0m/s-51.3°C1.2%0hPa0V08:19:0000:00:0000:00:00
KE7DJD2026-09-02 18:56:3943.92403-115.4433153°64km/h14781m-12.2m/s-51.5°C1.2%0hPa0V08:20:0000:00:0000:00:00
KE7DJD2026-09-02 18:56:1843.92185-115.4464040°55km/h15056m-13.6m/s-52.7°C1.3%0hPa0V08:20:0000:00:0000:00:00
KE7DJD2026-09-02 18:55:3743.91669-115.4519130°73km/h15734m-20.5m/s-51.5°C1.1%0hPa0V08:20:0000:00:0000:00:00
KE7DJD2026-09-02 18:55:1643.91364-115.4542039°60km/h16180m-21.4m/s-50.9°C1.0%0hPa0V08:20:0000:00:0000:00:00
KE7DJD2026-09-02 18:54:5643.91100-115.4569837°60km/h16623m-20.6m/s-52.6°C1.2%0hPa0V08:21:0000:00:0000:00:00
KE7DJD2026-09-02 18:54:3643.90932-115.4601380°49km/h17073m-24.1m/s-52.0°C1.1%0hPa0V08:21:0000:00:0000:00:00
KE7DJD2026-09-02 18:54:1543.90904-115.4623280°11km/h17585m-23.9m/s-51.9°C1.0%0hPa0V08:22:0000:00:0000:00:00
KE7DJD2026-09-02 18:53:5443.90818-115.4631341°27km/h18107m-23.2m/s-52.3°C1.0%0hPa0V08:22:0000:00:0000:00:00
KE7DJD2026-09-02 18:53:3343.90772-115.46397102°5km/h18557m-22.3m/s-53.8°C1.1%0hPa0V08:23:0000:00:0000:00:00
KE7DJD2026-09-02 18:53:1243.90710-115.4646612°29km/h19017m-21.8m/s-54.3°C1.3%0hPa0V08:23:0000:00:0000:00:00
KE7DJD2026-09-02 18:52:5143.90603-115.46443332°22km/h19496m-23.0m/s-52.6°C1.0%0hPa0V08:23:0000:00:0000:00:00
KE7DJD2026-09-02 18:52:3143.90487-115.4640211°27km/h19964m-23.5m/s-55.5°C1.2%0hPa0V08:24:0000:00:0000:00:00
KE7DJD2026-09-02 18:52:1243.90390-115.4654495°24km/h20446m-24.4m/s-55.5°C1.2%0hPa0V08:24:0000:00:0000:00:00
KE7DJD2026-09-02 18:51:5143.90411-115.46622341°16km/h20905m-21.7m/s-54.9°C1.1%0hPa0V08:25:0000:00:0000:00:00
KE7DJD2026-09-02 18:51:2943.90285-115.4667348°35km/h21381m-23.0m/s-54.7°C1.1%0hPa0V08:25:0000:00:0000:00:00
KE7DJD2026-09-02 18:51:0843.90252-115.4679917°9km/h21892m-24.0m/s-54.6°C1.1%0hPa0V08:25:0000:00:0000:00:00
KE7DJD2026-09-02 18:50:4843.90219-115.468300km/h22401m-24.5m/s-53.8°C1.1%0hPa0V08:25:0000:00:0000:00:00
KE7DJD2026-09-02 18:50:2743.90174-115.4688571°11km/h22997m-34.9m/s-53.3°C1.0%0hPa0V08:25:0000:00:0000:00:00
KE7DJD2026-09-02 18:50:0743.90230-115.46842240°18km/h23618m-29.7m/s-52.5°C1.0%0hPa0V08:26:0000:00:0000:00:00
KE7DJD2026-09-02 18:49:4643.90261-115.46794255°16km/h24347m-36.1m/s-51.1°C0.8%0hPa0V08:26:0000:00:0000:00:00
KE7DJD2026-09-02 18:49:2643.90242-115.46741331°13km/h25025m-33.3m/s-51.5°C0.9%0hPa0V08:26:0000:00:0000:00:00
KE7DJD2026-09-02 18:49:0543.90248-115.46712244°18km/h25745m-34.4m/s-49.4°C0.7%0hPa0V08:27:0000:00:0000:00:00
KE7DJD2026-09-02 18:48:4443.90235-115.46650258°13km/h26406m-31.5m/s-49.6°C0.8%0hPa0V08:27:0000:00:0000:00:00
KE7DJD2026-09-02 18:48:2443.90203-115.46560346°13km/h27099m-33.7m/s-50.2°C0.8%0hPa0V08:28:0000:00:0000:00:00
KE7DJD2026-09-02 18:48:0343.90217-115.46561208°9km/h27841m-37.6m/s-48.3°C0.7%0hPa0V08:28:0000:00:0000:00:00
KE7DJD2026-09-02 18:47:4243.90241-115.46531248°15km/h28701m-39.0m/s-45.9°C0.6%0hPa0V08:28:0000:00:0000:00:00
KE7DJD2026-09-02 18:47:2243.90248-115.4644541°11km/h29493m-41.9m/s-45.9°C0.6%0hPa0V08:29:0000:00:0000:00:00
KE7DJD2026-09-02 18:46:4143.90280-115.46494233°11km/h31114m-29.5m/s-41.9°C0.5%0hPa0V00:00:0000:00:0000:00:00
KE7DJD2026-09-02 18:46:2143.90402-115.46500128°22km/h31670m-23.5m/s-40.9°C0.4%0hPa0V00:00:0000:00:0000:00:00
KE7DJD2026-09-02 18:45:5943.90406-115.46457228°18km/h32393m-38.2m/s-41.2°C0.5%0hPa0V00:00:0000:00:0000:00:00
KE7DJD2026-09-02 18:45:3843.90358-115.46380331°11km/h33150m-14.3m/s-39.3°C0.4%0hPa0V00:00:0000:00:0000:00:00
KE7DJD2026-09-02 18:45:1743.90235-115.46393265°24km/h33043m4.9m/s-40.3°C0.4%0hPa0V00:00:0000:00:0000:00:00
KE7DJD2026-09-02 18:44:5643.90176-115.46358270°15km/h32921m6.7m/s-41.3°C0.4%0hPa0V00:00:0000:00:0000:00:00
KE7DJD2026-09-02 18:44:3543.90169-115.46243325°11km/h32796m7.3m/s-41.5°C0.5%0hPa0V00:00:0000:00:0000:00:00
KE7DJD2026-09-02 18:44:1443.90177-115.46104208°18km/h32665m6.3m/s-41.3°C0.5%0hPa0V00:00:0000:00:0000:00:00
KE7DJD2026-09-02 18:43:5443.90242-115.46001218°38km/h32539m5.3m/s-41.0°C0.4%0hPa0V00:00:0000:00:0000:00:00
KE7DJD2026-09-02 18:43:3443.90319-115.45949227°51km/h32410m6.7m/s-41.1°C0.5%0hPa0V00:00:0000:00:0000:00:00
KE7DJD2026-09-02 18:43:1443.90397-115.45915154°11km/h32270m8.5m/s-40.1°C0.4%0hPa0V00:00:0000:00:0000:00:00
KE7DJD2026-09-02 18:42:5143.90422-115.45924226°29km/h32119m6.5m/s-40.1°C0.4%0hPa0V00:00:0000:00:0000:00:00
KE7DJD2026-09-02 18:42:3043.90356-115.45876308°29km/h31977m6.6m/s-40.2°C0.4%0hPa0V00:00:0000:00:0000:00:00
KE7DJD2026-09-02 18:42:0943.90301-115.45825288°16km/h31829m8.7m/s-39.6°C0.4%0hPa0V00:00:0000:00:0000:00:00
KE7DJD2026-09-02 18:41:4943.90344-115.45787221°27km/h31691m6.9m/s-39.4°C0.4%0hPa0V00:00:0000:00:0000:00:00
KE7DJD2026-09-02 18:41:2943.90415-115.45708158°38km/h31555m7.8m/s-39.7°C0.4%0hPa0V00:00:0000:00:0000:00:00
KE7DJD2026-09-02 18:41:0943.90544-115.45643200°26km/h31424m7.5m/s-39.8°C0.4%0hPa0V00:00:0000:00:0000:00:00
KE7DJD2026-09-02 18:40:4843.90630-115.45610204°16km/h31284m6.0m/s-40.5°C0.4%0hPa0V00:00:0000:00:0000:00:00
KE7DJD2026-09-02 18:40:2843.90644-115.45630165°7km/h31151m6.3m/s-41.9°C0.5%0hPa0V00:00:0000:00:0000:00:00
KE7DJD2026-09-02 18:40:0743.90630-115.45557325°9km/h31015m7.5m/s-42.5°C0.5%0hPa0V00:00:0000:00:0000:00:00
KE7DJD2026-09-02 18:39:4643.90629-115.45587168°16km/h30877m7.3m/s-43.5°C0.6%0hPa0V00:00:0000:00:0000:00:00
KE7DJD2026-09-02 18:39:2543.90647-115.4568581°29km/h30740m6.0m/s-43.1°C0.6%0hPa0V00:00:0000:00:0000:00:00
KE7DJD2026-09-02 18:39:0543.90622-115.45730216°13km/h30610m7.0m/s-42.6°C0.5%0hPa0V00:00:0000:00:0000:00:00
KE7DJD2026-09-02 18:38:4443.90606-115.45679313°29km/h30472m6.3m/s-44.4°C0.5%0hPa0V00:00:0000:00:0000:00:00
KE7DJD2026-09-02 18:38:2443.90620-115.45582273°15km/h30346m6.4m/s-45.0°C0.6%0hPa0V00:00:0000:00:0000:00:00
KE7DJD2026-09-02 18:38:0443.90693-115.45553147°13km/h30221m6.9m/s-45.3°C0.6%0hPa0V00:00:0000:00:0000:00:00
KE7DJD2026-09-02 18:37:4343.90771-115.45666177°29km/h30091m5.2m/s-46.4°C0.6%0hPa0V00:00:0000:00:0000:00:00
KE7DJD2026-09-02 18:37:2243.90794-115.4580779°40km/h29961m5.6m/s-46.1°C0.6%0hPa0V00:00:0000:00:0000:00:00
KE7DJD2026-09-02 18:37:0243.90751-115.4595847°26km/h29832m7.6m/s-46.4°C0.6%0hPa0V00:00:0000:00:0000:00:00
KE7DJD2026-09-02 18:36:4243.90647-115.4608142°11km/h29703m6.6m/s-46.4°C0.7%0hPa0V00:00:0000:00:0000:00:00
KE7DJD2026-09-02 18:36:2143.90596-115.46136296°11km/h29573m7.0m/s-46.2°C0.7%0hPa0V00:00:0000:00:0000:00:00
KE7DJD2026-09-02 18:35:5943.90558-115.46148242°11km/h29429m6.2m/s-46.4°C0.7%0hPa0V00:00:0000:00:0000:00:00
KE7DJD2026-09-02 18:35:3943.90514-115.46062353°13km/h29297m7.2m/s-45.8°C0.7%0hPa0V00:00:0000:00:0000:00:00
KE7DJD2026-09-02 18:35:1843.90507-115.45884307°38km/h29161m7.4m/s-46.5°C0.7%0hPa0V00:00:0000:00:0000:00:00
KE7DJD2026-09-02 18:34:5743.90491-115.45679269°33km/h29024m6.6m/s-46.4°C0.7%0hPa0V00:00:0000:00:0000:00:00
KE7DJD2026-09-02 18:34:3743.90495-115.45506263°31km/h28893m6.0m/s-46.0°C0.7%0hPa0V00:00:0000:00:0000:00:00
KE7DJD2026-09-02 18:34:1743.90564-115.45375244°20km/h28760m7.9m/s-45.2°C0.7%0hPa0V00:00:0000:00:0000:00:00
KE7DJD2026-09-02 18:33:5643.90619-115.45242207°20km/h28620m7.0m/s-44.9°C0.6%0hPa0V00:00:0000:00:0000:00:00
KE7DJD2026-09-02 18:33:3543.90699-115.45157241°26km/h28483m6.2m/s-45.0°C0.6%0hPa0V00:00:0000:00:0000:00:00
KE7DJD2026-09-02 18:33:1043.90743-115.45101263°9km/h28323m4.6m/s-46.4°C0.7%0hPa0V00:00:0000:00:0000:00:00
KE7DJD2026-09-02 18:32:4943.90801-115.45123181°22km/h28192m6.2m/s-47.6°C0.7%0hPa0V00:00:0000:00:0000:00:00
KE7DJD2026-09-02 18:32:2943.90839-115.45105215°9km/h28072m6.4m/s-48.3°C0.8%0hPa0V00:00:0000:00:0000:00:00
KE7DJD2026-09-02 18:32:0943.90900-115.45068233°16km/h27952m6.7m/s-48.2°C0.7%0hPa0V00:00:0000:00:0000:00:00
KE7DJD2026-09-02 18:31:4943.90975-115.45061147°13km/h27834m6.9m/s-48.4°C0.7%0hPa0V00:00:0000:00:0000:00:00
KE7DJD2026-09-02 18:31:2843.91056-115.45036162°24km/h27708m6.3m/s-48.2°C0.8%0hPa0V00:00:0000:00:0000:00:00
KE7DJD2026-09-02 18:31:0843.91123-115.45037193°22km/h27593m5.6m/s-49.1°C0.8%0hPa0V00:00:0000:00:0000:00:00
KE7DJD2026-09-02 18:30:4843.91155-115.45098109°13km/h27477m6.3m/s-49.5°C0.8%0hPa0V00:00:0000:00:0000:00:00
KE7DJD2026-09-02 18:30:2743.91175-115.4516120km/h27358m6.9m/s-50.0°C0.8%0hPa0V00:00:0000:00:0000:00:00
KE7DJD2026-09-02 18:30:0743.91141-115.45173302°9km/h27246m5.9m/s-50.6°C0.9%0hPa0V00:00:0000:00:0000:00:00
KE7DJD2026-09-02 18:29:4643.91070-115.45133192°4km/h27129m3.9m/s-50.7°C0.9%0hPa0V00:00:0000:00:0000:00:00
KE7DJD2026-09-02 18:29:2643.90999-115.45017255°5km/h27017m7.5m/s-50.8°C0.9%0hPa0V00:00:0000:00:0000:00:00
KE7DJD2026-09-02 18:29:0543.90959-115.44918343°11km/h26897m6.7m/s-50.3°C0.9%0hPa0V00:00:0000:00:0000:00:00
KE7DJD2026-09-02 18:28:4543.90936-115.44816271°37km/h26781m5.6m/s-49.7°C0.8%0hPa0V00:00:0000:00:0000:00:00
KE7DJD2026-09-02 18:28:2543.90934-115.44668266°31km/h26662m6.7m/s-50.0°C0.8%0hPa0V00:00:0000:00:0000:00:00
KE7DJD2026-09-02 18:28:0543.90961-115.44561230°15km/h26541m6.5m/s-50.1°C0.9%0hPa0V00:00:0000:00:0000:00:00
KE7DJD2026-09-02 18:27:2543.90887-115.4453924°18km/h26283m7.5m/s-50.8°C0.9%0hPa0V00:00:0000:00:0000:00:00
KE7DJD2026-09-02 18:27:0343.90782-115.44501324°27km/h26148m6.8m/s-50.2°C0.9%0hPa0V00:00:0000:00:0000:00:00
KE7DJD2026-09-02 18:26:4243.90734-115.44425298°37km/h26015m5.7m/s-49.7°C0.9%0hPa0V00:00:0000:00:0000:00:00
KE7DJD2026-09-02 18:26:2143.90757-115.44339215°20km/h25885m5.7m/s-49.6°C0.8%0hPa0V00:00:0000:00:0000:00:00
KE7DJD2026-09-02 18:26:0043.90793-115.44296209°7km/h25760m5.8m/s-49.9°C0.9%0hPa0V00:00:0000:00:0000:00:00
KE7DJD2026-09-02 18:25:3943.90829-115.44264107°11km/h25637m6.1m/s-50.5°C0.9%0hPa0V00:00:0000:00:0000:00:00
KE7DJD2026-09-02 18:25:1843.90833-115.44189194°7km/h25521m7.0m/s-50.5°C0.9%0hPa0V00:00:0000:00:0000:00:00
KE7DJD2026-09-02 18:24:5743.90845-115.4419994°4km/h25405m5.9m/s-50.3°C0.9%0hPa0V00:00:0000:00:0000:00:00
KE7DJD2026-09-02 18:24:3743.90841-115.44279346°9km/h25296m5.5m/s-50.3°C0.9%0hPa0V00:00:0000:00:0000:00:00
KE7DJD2026-09-02 18:24:1843.90777-115.44293349°7km/h25188m6.3m/s-50.3°C0.9%0hPa0V00:00:0000:00:0000:00:00
KE7DJD2026-09-02 18:23:5643.90716-115.44234309°13km/h25073m4.5m/s-51.0°C0.9%0hPa0V00:00:0000:00:0000:00:00
KE7DJD2026-09-02 18:23:2943.90637-115.44167263°24km/h24924m4.0m/s-51.6°C1.0%0hPa0V00:00:0000:00:0000:00:00
KE7DJD2026-09-02 18:23:0943.90569-115.44086297°20km/h24806m6.1m/s-51.1°C0.9%0hPa0V00:00:0000:00:0000:00:00
KE7DJD2026-09-02 18:22:4643.90514-115.43976343°18km/h24675m5.6m/s-51.2°C0.9%0hPa0V00:00:0000:00:0000:00:00
KE7DJD2026-09-02 18:22:2243.90521-115.43858238°29km/h24540m5.1m/s-51.6°C1.0%0hPa0V00:00:0000:00:0000:00:00
KE7DJD2026-09-02 18:22:0143.90564-115.43748238°24km/h24427m5.3m/s-51.7°C1.0%0hPa0V00:00:0000:00:0000:00:00
KE7DJD2026-09-02 18:21:4043.90571-115.43644310°9km/h24305m6.8m/s-51.7°C1.0%0hPa0V00:00:0000:00:0000:00:00
KE7DJD2026-09-02 18:21:1943.90601-115.43611131°9km/h24186m4.5m/s-52.4°C1.0%0hPa0V00:00:0000:00:0000:00:00
KE7DJD2026-09-02 18:20:5943.90656-115.4364283°13km/h24072m4.3m/s-52.8°C1.0%0hPa0V00:00:0000:00:0000:00:00
KE7DJD2026-09-02 18:20:3943.90679-115.43636175°5km/h23953m6.0m/s-52.8°C1.1%0hPa0V00:00:0000:00:0000:00:00
KE7DJD2026-09-02 18:20:1743.90671-115.43568267°18km/h23835m4.9m/s-52.5°C1.0%0hPa0V00:00:0000:00:0000:00:00
KE7DJD2026-09-02 18:19:5043.90707-115.43430231°20km/h23686m5.0m/s-52.4°C1.1%0hPa0V00:00:0000:00:0000:00:00
KE7DJD2026-09-02 18:19:3043.90785-115.43347196°18km/h23569m4.4m/s-52.4°C1.0%0hPa0V00:00:0000:00:0000:00:00
KE7DJD2026-09-02 18:19:0843.90851-115.43310238°27km/h23454m4.8m/s-53.2°C1.1%0hPa0V00:00:0000:00:0000:00:00
KE7DJD2026-09-02 18:18:4743.90924-115.43311180°7km/h23343m4.9m/s-53.3°C1.0%0hPa0V00:00:0000:00:0000:00:00
KE7DJD2026-09-02 18:18:2743.90977-115.43360182°4km/h23238m4.2m/s-53.7°C1.1%0hPa0V00:00:0000:00:0000:00:00
KE7DJD2026-09-02 18:18:0743.90969-115.4344652°13km/h23132m6.1m/s-54.2°C1.1%0hPa0V00:00:0000:00:0000:00:00
KE7DJD2026-09-02 18:17:4643.90924-115.4353245°16km/h23021m4.5m/s-54.5°C1.1%0hPa0V00:00:0000:00:0000:00:00
KE7DJD2026-09-02 18:17:2543.90851-115.4360017°27km/h22908m4.1m/s-55.0°C1.2%0hPa0V00:00:0000:00:0000:00:00
KE7DJD2026-09-02 18:17:0543.90790-115.43592348°13km/h22807m5.3m/s-54.7°C1.2%0hPa0V00:00:0000:00:0000:00:00
KE7DJD2026-09-02 18:16:4543.90746-115.43587323°9km/h22694m6.2m/s-54.2°C1.1%0hPa0V00:00:0000:00:0000:00:00
KE7DJD2026-09-02 18:16:2343.90733-115.43596184°2km/h22582m5.1m/s-53.8°C1.2%0hPa0V00:00:0000:00:0000:00:00
KE7DJD2026-09-02 18:16:0343.90753-115.43561256°22km/h22477m4.7m/s-53.4°C1.1%0hPa0V00:00:0000:00:0000:00:00
KE7DJD2026-09-02 18:15:4343.90812-115.43536238°15km/h22364m6.6m/s-53.0°C1.1%0hPa0V00:00:0000:00:0000:00:00
KE7DJD2026-09-02 18:15:2343.90859-115.43483204°7km/h22250m5.5m/s-52.4°C1.1%0hPa0V00:00:0000:00:0000:00:00
KE7DJD2026-09-02 18:14:4243.90859-115.4346133°7km/h22014m5.2m/s-53.1°C1.1%0hPa0V00:00:0000:00:0000:00:00
KE7DJD2026-09-02 18:14:2143.90769-115.43459351°24km/h21890m6.3m/s-53.2°C1.1%0hPa0V00:00:0000:00:0000:00:00
KE7DJD2026-09-02 18:14:0143.90690-115.43440339°26km/h21772m4.7m/s-53.0°C1.2%0hPa0V00:00:0000:00:0000:00:00
KE7DJD2026-09-02 18:13:4043.90637-115.43428317°4km/h21656m4.9m/s-53.0°C1.1%0hPa0V00:00:0000:00:0000:00:00
KE7DJD2026-09-02 18:13:2043.90592-115.43469150°2km/h21541m4.9m/s-52.6°C1.1%0hPa0V00:00:0000:00:0000:00:00
KE7DJD2026-09-02 18:12:4843.90557-115.4370062°37km/h21382m4.8m/s-53.4°C1.2%0hPa0V00:00:0000:00:0000:00:00
KE7DJD2026-09-02 18:12:2943.90456-115.4386130°29km/h21274m5.0m/s-53.9°C1.2%0hPa0V00:00:0000:00:0000:00:00
KE7DJD2026-09-02 18:12:0743.90309-115.4394926°24km/h21168m4.8m/s-53.3°C1.1%0hPa0V00:00:0000:00:0000:00:00
KE7DJD2026-09-02 18:11:4743.90173-115.43995350°26km/h21064m4.2m/s-53.4°C1.2%0hPa0V00:00:0000:00:0000:00:00
KE7DJD2026-09-02 18:11:2643.90058-115.4399329°15km/h20955m4.9m/s-54.4°C1.2%0hPa0V00:00:0000:00:0000:00:00
KE7DJD2026-09-02 18:11:0543.89992-115.4401846°20km/h20842m4.3m/s-54.8°C1.2%0hPa0V00:00:0000:00:0000:00:00
KE7DJD2026-09-02 18:10:4443.90000-115.4409999°22km/h20733m6.2m/s-55.7°C1.3%0hPa0V00:00:0000:00:0000:00:00
KE7DJD2026-09-02 18:10:2343.90008-115.4420385°13km/h20623m6.2m/s-55.3°C1.3%0hPa0V00:00:0000:00:0000:00:00
KE7DJD2026-09-02 18:10:0243.89991-115.4434643°24km/h20512m5.0m/s-55.5°C1.3%0hPa0V00:00:0000:00:0000:00:00
KE7DJD2026-09-02 18:09:4243.89923-115.4454046°37km/h20408m4.6m/s-55.5°C1.4%0hPa0V00:00:0000:00:0000:00:00
KE7DJD2026-09-02 18:09:2143.89786-115.4475853°44km/h20296m4.3m/s-55.9°C1.4%0hPa0V00:00:0000:00:0000:00:00
KE7DJD2026-09-02 18:09:0143.89614-115.4493824°47km/h20191m5.6m/s-55.7°C1.4%0hPa0V00:00:0000:00:0000:00:00
KE7DJD2026-09-02 18:08:4043.89417-115.4504942km/h20081m4.3m/s-55.4°C1.3%0hPa0V00:00:0000:00:0000:00:00
KE7DJD2026-09-02 18:08:1943.89231-115.4506640km/h19966m4.7m/s-54.9°C1.3%0hPa0V00:00:0000:00:0000:00:00
KE7DJD2026-09-02 18:07:5943.89074-115.45064357°20km/h19860m5.1m/s-54.2°C1.3%0hPa0V00:00:0000:00:0000:00:00
KE7DJD2026-09-02 18:07:3843.88946-115.44994340°26km/h19751m4.1m/s-53.8°C1.3%0hPa0V00:00:0000:00:0000:00:00
KE7DJD2026-09-02 18:07:1843.88836-115.44881325°31km/h19650m5.3m/s-53.3°C1.2%0hPa0V00:00:0000:00:0000:00:00
KE7DJD2026-09-02 18:06:5743.88763-115.44744285°20km/h19542m4.9m/s-52.5°C1.2%0hPa0V00:00:0000:00:0000:00:00
KE7DJD2026-09-02 18:06:3643.88701-115.44664345°9km/h19428m4.8m/s-52.2°C1.2%0hPa0V00:00:0000:00:0000:00:00
KE7DJD2026-09-02 18:06:1643.88644-115.44593289°18km/h19322m5.9m/s-51.5°C1.1%0hPa0V00:00:0000:00:0000:00:00
KE7DJD2026-09-02 18:05:5643.88582-115.44556350°16km/h19214m6.4m/s-52.4°C1.1%0hPa0V00:00:0000:00:0000:00:00
KE7DJD2026-09-02 18:05:3543.88452-115.4455218km/h19105m5.5m/s-55.1°C1.3%0hPa0V00:00:0000:00:0000:00:00
KE7DJD2026-09-02 18:05:1443.88330-115.4463318°31km/h18997m5.4m/s-55.5°C1.3%0hPa0V00:00:0000:00:0000:00:00
KE7DJD2026-09-02 18:04:5343.88229-115.4470028°31km/h18888m3.5m/s-55.5°C1.3%0hPa0V00:00:0000:00:0000:00:00
KE7DJD2026-09-02 18:04:1243.88163-115.44777342°9km/h18682m4.5m/s-54.1°C1.3%0hPa0V00:00:0000:00:0000:00:00
KE7DJD2026-09-02 18:03:5143.88171-115.44802249°7km/h18573m5.9m/s-53.2°C1.2%0hPa0V00:00:0000:00:0000:00:00
KE7DJD2026-09-02 18:03:3143.88177-115.44852166°18km/h18464m4.2m/s-52.4°C1.2%0hPa0V00:00:0000:00:0000:00:00
KE7DJD2026-09-02 18:03:1143.88160-115.4492039°11km/h18355m5.2m/s-52.1°C1.2%0hPa0V00:00:0000:00:0000:00:00
KE7DJD2026-09-02 18:02:5043.88095-115.4500455°18km/h18228m7.0m/s-51.8°C1.2%0hPa0V00:00:0000:00:0000:00:00
KE7DJD2026-09-02 18:02:2943.87966-115.4511126°33km/h18112m3.8m/s-51.1°C1.1%0hPa0V00:00:0000:00:0000:00:00
KE7DJD2026-09-02 18:02:0843.87811-115.4523130°20km/h18012m5.2m/s-51.7°C1.1%0hPa0V00:00:0000:00:0000:00:00
KE7DJD2026-09-02 18:01:4743.87691-115.4530632°29km/h17905m4.2m/s-52.5°C1.2%0hPa0V00:00:0000:00:0000:00:00
KE7DJD2026-09-02 18:01:2643.87575-115.4544855°37km/h17796m5.0m/s-53.3°C1.2%0hPa0V00:00:0000:00:0000:00:00
KE7DJD2026-09-02 18:01:0643.87515-115.4565261°26km/h17691m5.2m/s-53.5°C1.3%0hPa0V00:00:0000:00:0000:00:00
KE7DJD2026-09-02 18:00:4543.87439-115.4581457°38km/h17585m4.7m/s-52.7°C1.3%0hPa0V00:00:0000:00:0000:00:00
KE7DJD2026-09-02 18:00:2543.87361-115.4599880°31km/h17485m4.6m/s-53.7°C1.3%0hPa0V00:00:0000:00:0000:00:00
KE7DJD2026-09-02 18:00:0443.87268-115.4623066°46km/h17375m3.9m/s-53.8°C1.3%0hPa0V00:00:0000:00:0000:00:00
KE7DJD2026-09-02 17:59:4343.87141-115.4646170°42km/h17262m6.2m/s-53.4°C1.3%0hPa0V00:00:0000:00:0000:00:00
KE7DJD2026-09-02 17:59:2243.87044-115.4669067°42km/h17138m6.6m/s-52.5°C1.3%0hPa0V00:00:0000:00:0000:00:00
KE7DJD2026-09-02 17:59:0143.86945-115.4694657°53km/h16995m8.1m/s-51.7°C1.2%0hPa0V00:00:0000:00:0000:00:00
KE7DJD2026-09-02 17:58:4043.86791-115.4723448°51km/h16869m4.0m/s-51.5°C1.2%0hPa0V00:00:0000:00:0000:00:00
KE7DJD2026-09-02 17:58:2043.86617-115.4754357°64km/h16771m5.1m/s-51.7°C1.3%0hPa0V00:00:0000:00:0000:00:00
KE7DJD2026-09-02 17:58:0043.86428-115.4783944°58km/h16677m4.4m/s-51.5°C1.2%0hPa0V00:00:0000:00:0000:00:00
KE7DJD2026-09-02 17:57:4043.86209-115.4813547°64km/h16585m3.9m/s-51.7°C1.3%0hPa0V00:00:0000:00:0000:00:00
KE7DJD2026-09-02 17:57:1943.85975-115.4845547°69km/h16488m5.8m/s-51.2°C1.2%0hPa0V00:00:0000:00:0000:00:00
KE7DJD2026-09-02 17:56:5943.85737-115.4874034°64km/h16392m5.3m/s-50.6°C1.2%0hPa0V00:00:0000:00:0000:00:00
KE7DJD2026-09-02 17:56:3943.85467-115.4900137°71km/h16300m3.9m/s-50.5°C1.2%0hPa0V00:00:0000:00:0000:00:00
KE7DJD2026-09-02 17:56:1843.85174-115.4925326°62km/h16202m3.7m/s-50.1°C1.2%0hPa0V00:00:0000:00:0000:00:00
KE7DJD2026-09-02 17:55:5843.84913-115.4948326°69km/h16107m5.0m/s-51.8°C1.3%0hPa0V00:00:0000:00:0000:00:00
KE7DJD2026-09-02 17:55:3743.84625-115.4969525°46km/h16012m3.2m/s-53.2°C1.5%0hPa0V00:00:0000:00:0000:00:00
KE7DJD2026-09-02 17:55:1543.84340-115.4992534°60km/h15904m3.9m/s-52.7°C1.4%0hPa0V00:00:0000:00:0000:00:00
KE7DJD2026-09-02 17:54:5543.84100-115.5012137°62km/h15807m4.3m/s-52.2°C1.4%0hPa0V00:00:0000:00:0000:00:00
KE7DJD2026-09-02 17:54:3543.83859-115.5034740°49km/h15696m5.2m/s-52.4°C1.4%0hPa0V00:00:0000:00:0000:00:00
KE7DJD2026-09-02 17:54:1443.83664-115.5066455°55km/h15613m2.9m/s-52.2°C1.4%0hPa0V00:00:0000:00:0000:00:00
KE7DJD2026-09-02 17:53:5443.83490-115.5094245°53km/h15531m5.7m/s-52.1°C1.4%0hPa0V00:00:0000:00:0000:00:00
KE7DJD2026-09-02 17:53:3443.83298-115.5118643°51km/h15445m3.4m/s-51.5°C1.4%0hPa0V00:00:0000:00:0000:00:00
KE7DJD2026-09-02 17:53:1343.83095-115.5141034°47km/h15343m5.7m/s-50.8°C1.4%0hPa0V00:00:0000:00:0000:00:00
KE7DJD2026-09-02 17:52:5243.82886-115.5160135°46km/h15239m5.0m/s-50.7°C1.3%0hPa0V00:00:0000:00:0000:00:00
KE7DJD2026-09-02 17:52:3243.82655-115.5181430°53km/h15148m5.7m/s-50.6°C1.4%0hPa0V00:00:0000:00:0000:00:00
KE7DJD2026-09-02 17:52:1243.82432-115.5202927°42km/h15054m4.1m/s-50.2°C1.3%0hPa0V00:00:0000:00:0000:00:00
KE7DJD2026-09-02 17:51:5143.82225-115.5225046°57km/h14967m4.3m/s-49.8°C1.3%0hPa0V00:00:0000:00:0000:00:00
KE7DJD2026-09-02 17:51:3143.82040-115.5251651°60km/h14881m5.8m/s-49.6°C1.3%0hPa0V00:00:0000:00:0000:00:00
KE7DJD2026-09-02 17:51:1043.81825-115.5280641°57km/h14787m5.1m/s-49.3°C1.3%0hPa0V00:00:0000:00:0000:00:00
KE7DJD2026-09-02 17:50:4943.81624-115.5306955°49km/h14698m3.6m/s-48.7°C1.2%0hPa0V00:00:0000:00:0000:00:00
KE7DJD2026-09-02 17:50:0843.81238-115.5370059°68km/h14513m4.8m/s-48.9°C1.2%0hPa0V00:00:0000:00:0000:00:00
KE7DJD2026-09-02 17:49:4843.80997-115.5414655°86km/h14426m4.1m/s-49.7°C1.3%0hPa0V00:00:0000:00:0000:00:00
KE7DJD2026-09-02 17:49:2743.80730-115.5460350°75km/h14340m3.4m/s-49.4°C1.3%0hPa0V00:00:0000:00:0000:00:00
KE7DJD2026-09-02 17:49:0743.80447-115.5500249°73km/h14256m3.8m/s-49.9°C1.4%0hPa0V00:00:0000:00:0000:00:00
KE7DJD2026-09-02 17:48:4643.80162-115.5544149°93km/h14167m3.3m/s-50.6°C1.4%0hPa0V00:00:0000:00:0000:00:00
KE7DJD2026-09-02 17:48:2543.79860-115.5592951°78km/h14080m3.4m/s-51.1°C1.5%0hPa0V00:00:0000:00:0000:00:00
KE7DJD2026-09-02 17:48:0443.79545-115.5635847°86km/h13994m4.1m/s-51.1°C1.5%0hPa0V00:00:0000:00:0000:00:00
KE7DJD2026-09-02 17:47:4443.79221-115.5675440°86km/h13918m3.6m/s-51.0°C1.5%0hPa0V00:00:0000:00:0000:00:00
KE7DJD2026-09-02 17:47:2343.78897-115.5712734°80km/h13836m4.4m/s-51.5°C1.6%0hPa0V00:00:0000:00:0000:00:00
KE7DJD2026-09-02 17:47:0243.78597-115.5747645°77km/h13754m3.7m/s-51.2°C1.6%0hPa0V00:00:0000:00:0000:00:00
KE7DJD2026-09-02 17:46:4243.78316-115.5785442°82km/h13681m4.7m/s-51.2°C1.7%0hPa0V00:00:0000:00:0000:00:00
KE7DJD2026-09-02 17:46:2143.78030-115.5822845°78km/h13603m2.9m/s-51.2°C1.7%0hPa0V00:00:0000:00:0000:00:00
KE7DJD2026-09-02 17:46:0243.77794-115.5863153°73km/h13523m4.9m/s-51.3°C1.8%0hPa0V00:00:0000:00:0000:00:00
KE7DJD2026-09-02 17:45:4043.77565-115.5902951°57km/h13438m5.7m/s-51.1°C1.8%0hPa0V00:00:0000:00:0000:00:00
KE7DJD2026-09-02 17:45:2043.77346-115.5937038°68km/h13350m5.5m/s-50.8°C1.8%0hPa0V00:00:0000:00:0000:00:00
KE7DJD2026-09-02 17:44:5943.77125-115.5976854°75km/h13250m5.3m/s-50.7°C2.0%0hPa0V00:00:0000:00:0000:00:00
KE7DJD2026-09-02 17:44:3943.76899-115.6016653°69km/h13156m4.6m/s-51.0°C2.0%0hPa0V00:00:0000:00:0000:00:00
KE7DJD2026-09-02 17:43:5843.76445-115.6094451°71km/h12939m5.3m/s-50.4°C1.9%0hPa0V00:00:0000:00:0000:00:00
KE7DJD2026-09-02 17:43:1843.75990-115.6176254°73km/h12699m6.9m/s-48.9°C1.9%0hPa0V00:00:0000:00:0000:00:00
KE7DJD2026-09-02 17:42:5743.75739-115.6217749°80km/h12579m6.1m/s-48.4°C1.8%0hPa0V00:00:0000:00:0000:00:00
KE7DJD2026-09-02 17:42:3643.75476-115.6261856°80km/h12464m5.7m/s-48.0°C1.9%0hPa0V00:00:0000:00:0000:00:00
KE7DJD2026-09-02 17:42:1543.75193-115.6307154°78km/h12357m5.1m/s-47.5°C1.9%0hPa0V00:00:0000:00:0000:00:00
KE7DJD2026-09-02 17:41:5543.74950-115.6351756°73km/h12263m5.1m/s-47.4°C1.9%0hPa0V00:00:0000:00:0000:00:00
KE7DJD2026-09-02 17:41:3543.74708-115.6397552°86km/h12179m3.2m/s-46.9°C1.9%0hPa0V00:00:0000:00:0000:00:00
KE7DJD2026-09-02 17:41:1443.74425-115.6447549°88km/h12097m4.8m/s-46.9°C2.1%0hPa0V00:00:0000:00:0000:00:00
KE7DJD2026-09-02 17:40:5343.74105-115.6492947°82km/h12026m3.4m/s-47.5°C2.4%0hPa0V00:00:0000:00:0000:00:00
KE7DJD2026-09-02 17:40:3243.73812-115.6541450°93km/h11958m3.3m/s-47.8°C2.5%0hPa0V00:00:0000:00:0000:00:00
KE7DJD2026-09-02 17:40:1243.73549-115.6593153°88km/h11895m3.6m/s-48.3°C3.1%0hPa0V00:00:0000:00:0000:00:00
KE7DJD2026-09-02 17:39:5143.73283-115.6645258°91km/h11823m4.1m/s-48.4°C3.1%0hPa0V00:00:0000:00:0000:00:00
KE7DJD2026-09-02 17:39:3043.73025-115.6702657°95km/h11743m3.3m/s-48.2°C3.6%0hPa0V00:00:0000:00:0000:00:00
KE7DJD2026-09-02 17:39:1043.72793-115.6759261°93km/h11657m5.0m/s-48.6°C4.3%0hPa0V00:00:0000:00:0000:00:00
KE7DJD2026-09-02 17:38:4943.72559-115.6819263°102km/h11564m4.2m/s-48.5°C4.1%0hPa0V00:00:0000:00:0000:00:00
KE7DJD2026-09-02 17:38:2843.72364-115.6882370°100km/h11463m5.6m/s-49.0°C3.9%0hPa0V00:00:0000:00:0000:00:00
KE7DJD2026-09-02 17:38:0843.72176-115.6944968°89km/h11368m4.2m/s-48.5°C3.7%0hPa0V00:00:0000:00:0000:00:00
KE7DJD2026-09-02 17:37:4743.72007-115.7008467°86km/h11260m5.3m/s-48.0°C4.0%0hPa0V00:00:0000:00:0000:00:00
KE7DJD2026-09-02 17:37:2643.71840-115.7070972°93km/h11145m4.8m/s-47.5°C5.3%0hPa0V00:00:0000:00:0000:00:00
KE7DJD2026-09-02 17:37:0643.71670-115.7137470°104km/h11036m6.8m/s-48.2°C6.9%0hPa0V00:00:0000:00:0000:00:00
KE7DJD2026-09-02 17:36:4543.71499-115.7212774°110km/h10919m4.8m/s-49.1°C8.8%0hPa0V00:00:0000:00:0000:00:00
KE7DJD2026-09-02 17:36:2543.71347-115.7286978°113km/h10808m5.4m/s-49.8°C16.4%0hPa0V00:00:0000:00:0000:00:00
KE7DJD2026-09-02 17:36:0543.71216-115.7365279°106km/h10702m5.3m/s-49.6°C23.5%0hPa0V00:00:0000:00:0000:00:00
KE7DJD2026-09-02 17:35:4443.71072-115.7452080°120km/h10588m6.8m/s-49.3°C28.4%0hPa0V00:00:0000:00:0000:00:00
KE7DJD2026-09-02 17:35:2443.70897-115.7538877°131km/h10460m5.2m/s-49.1°C30.9%0hPa0V00:00:0000:00:0000:00:00
KE7DJD2026-09-02 17:35:0443.70675-115.7631969°139km/h10353m4.6m/s-48.5°C29.3%0hPa0V00:00:0000:00:0000:00:00
KE7DJD2026-09-02 17:34:4343.70420-115.7731073°139km/h10258m3.7m/s-48.2°C27.5%0hPa0V00:00:0000:00:0000:00:00
KE7DJD2026-09-02 17:34:2343.70177-115.7823274°120km/h10166m5.1m/s-47.4°C27.3%0hPa0V00:00:0000:00:0000:00:00
KE7DJD2026-09-02 17:34:0243.69976-115.7919674°142km/h10047m4.8m/s-46.7°C28.5%0hPa0V00:00:0000:00:0000:00:00
KE7DJD2026-09-02 17:33:4143.69834-115.8011384°124km/h9918m7.0m/s-45.6°C23.3%0hPa0V00:00:0000:00:0000:00:00
KE7DJD2026-09-02 17:33:2043.69703-115.8104579°120km/h9789m5.2m/s-44.3°C20.0%0hPa0V00:00:0000:00:0000:00:00
KE7DJD2026-09-02 17:32:5943.69557-115.8194777°111km/h9667m5.0m/s-43.1°C13.7%0hPa0V00:00:0000:00:0000:00:00
KE7DJD2026-09-02 17:32:3843.69435-115.8280880°113km/h9573m5.2m/s-42.7°C14.6%0hPa0V00:00:0000:00:0000:00:00
KE7DJD2026-09-02 17:32:1843.69317-115.8364581°126km/h9467m6.6m/s-42.4°C22.2%0hPa0V00:00:0000:00:0000:00:00
KE7DJD2026-09-02 17:31:5743.69241-115.8456484°130km/h9377m5.4m/s-41.5°C23.7%0hPa0V00:00:0000:00:0000:00:00
KE7DJD2026-09-02 17:31:3743.69171-115.8550187°126km/h9288m3.0m/s-40.7°C24.2%0hPa0V00:00:0000:00:0000:00:00
KE7DJD2026-09-02 17:31:1643.69110-115.8640587°126km/h9206m5.2m/s-40.0°C18.0%0hPa0V00:00:0000:00:0000:00:00
KE7DJD2026-09-02 17:30:5543.69057-115.8733787°119km/h9114m3.9m/s-39.5°C26.5%0hPa0V00:00:0000:00:0000:00:00
KE7DJD2026-09-02 17:30:3543.69017-115.8824286°137km/h9024m4.1m/s-38.8°C26.7%0hPa0V00:00:0000:00:0000:00:00
KE7DJD2026-09-02 17:30:1543.68971-115.8915085°133km/h8930m5.5m/s-38.0°C26.6%0hPa0V00:00:0000:00:0000:00:00
KE7DJD2026-09-02 17:29:5543.68917-115.9007085°133km/h8832m4.0m/s-37.8°C14.2%0hPa0V00:00:0000:00:0000:00:00
KE7DJD2026-09-02 17:29:3443.68842-115.9099485°135km/h8729m4.6m/s-37.0°C14.9%0hPa0V00:00:0000:00:0000:00:00
KE7DJD2026-09-02 17:29:1543.68757-115.9185383°131km/h8620m3.5m/s-36.4°C17.4%0hPa0V00:00:0000:00:0000:00:00
KE7DJD2026-09-02 17:28:5443.68669-115.9274580°131km/h8521m5.3m/s-35.6°C18.2%0hPa0V00:00:0000:00:0000:00:00
KE7DJD2026-09-02 17:28:3443.68565-115.9368483°130km/h8412m5.5m/s-34.7°C18.1%0hPa0V00:00:0000:00:0000:00:00
KE7DJD2026-09-02 17:28:1243.68448-115.9462778°128km/h8307m5.8m/s-33.8°C17.8%0hPa0V00:00:0000:00:0000:00:00
KE7DJD2026-09-02 17:27:5343.68323-115.9552581°128km/h8201m4.5m/s-33.0°C20.5%0hPa0V00:00:0000:00:0000:00:00
KE7DJD2026-09-02 17:27:3143.68201-115.9646882°131km/h8093m6.2m/s-31.9°C21.5%0hPa0V00:00:0000:00:0000:00:00
KE7DJD2026-09-02 17:27:1143.68077-115.9736280°130km/h7994m4.9m/s-31.2°C19.3%0hPa0V00:00:0000:00:0000:00:00
KE7DJD2026-09-02 17:26:5143.67929-115.9823581°130km/h7895m4.2m/s-30.7°C27.8%0hPa0V00:00:0000:00:0000:00:00
KE7DJD2026-09-02 17:26:3043.67778-115.9914177°126km/h7793m4.0m/s-29.9°C30.8%0hPa0V00:00:0000:00:0000:00:00
KE7DJD2026-09-02 17:26:1043.67647-115.9998480°122km/h7697m6.8m/s-29.3°C35.8%0hPa0V00:00:0000:00:0000:00:00
KE7DJD2026-09-02 17:25:4943.67533-116.0087478°115km/h7593m4.4m/s-28.8°C46.6%0hPa0V00:00:0000:00:0000:00:00
KE7DJD2026-09-02 17:25:2943.67421-116.0169084°124km/h7490m3.4m/s-27.9°C44.6%0hPa0V00:00:0000:00:0000:00:00
KE7DJD2026-09-02 17:25:0943.67297-116.0253881°130km/h7397m5.7m/s-27.2°C38.0%0hPa0V00:00:0000:00:0000:00:00
KE7DJD2026-09-02 17:24:4943.67172-116.0338478°131km/h7305m3.3m/s-26.3°C37.1%0hPa0V00:00:0000:00:0000:00:00
KE7DJD2026-09-02 17:24:2843.67033-116.0427380°120km/h7212m4.8m/s-25.6°C38.5%0hPa0V00:00:0000:00:0000:00:00
KE7DJD2026-09-02 17:24:0743.66903-116.0515981°117km/h7116m5.6m/s-24.9°C40.5%0hPa0V00:00:0000:00:0000:00:00
KE7DJD2026-09-02 17:23:4743.66788-116.0601479°133km/h7024m4.1m/s-24.5°C37.4%0hPa0V00:00:0000:00:0000:00:00
KE7DJD2026-09-02 17:23:2643.66666-116.0686284°119km/h6920m3.9m/s-23.9°C21.5%0hPa0V00:00:0000:00:0000:00:00
KE7DJD2026-09-02 17:23:0643.66497-116.0763868°115km/h6801m5.0m/s-23.6°C15.0%0hPa0V00:00:0000:00:0000:00:00
KE7DJD2026-09-02 17:22:4643.66300-116.0833257°100km/h6682m5.5m/s-23.1°C14.1%0hPa0V00:00:0000:00:0000:00:00
KE7DJD2026-09-02 17:22:2643.66049-116.0896562°104km/h6587m3.0m/s-22.7°C14.2%0hPa0V00:00:0000:00:0000:00:00
KE7DJD2026-09-02 17:22:0543.65799-116.0956664°113km/h6506m3.0m/s-22.3°C16.7%0hPa0V00:00:0000:00:0000:00:00
KE7DJD2026-09-02 17:21:4543.65537-116.1017258°86km/h6400m7.7m/s-22.1°C26.4%0hPa0V00:00:0000:00:0000:00:00
KE7DJD2026-09-02 17:21:2343.65265-116.1069054°93km/h6299m6.6m/s-22.0°C45.7%0hPa0V00:00:0000:00:0000:00:00
KE7DJD2026-09-02 17:21:0243.65015-116.1115356°84km/h6197m4.7m/s-21.3°C48.0%0hPa0V00:00:0000:00:0000:00:00
KE7DJD2026-09-02 17:20:4243.64777-116.1159656°78km/h6113m4.9m/s-20.6°C47.7%0hPa0V00:00:0000:00:0000:00:00
KE7DJD2026-09-02 17:20:2143.64539-116.1206049°84km/h6021m4.6m/s-20.2°C52.7%0hPa0V00:00:0000:00:0000:00:00
KE7DJD2026-09-02 17:20:0243.64307-116.1247958°68km/h5940m3.2m/s-19.5°C54.2%0hPa0V00:00:0000:00:0000:00:00
KE7DJD2026-09-02 17:19:4043.64082-116.1289747°64km/h5844m4.4m/s-18.9°C56.5%0hPa0V00:00:0000:00:0000:00:00
KE7DJD2026-09-02 17:19:1943.63862-116.1329748°64km/h5753m2.9m/s-18.2°C59.1%0hPa0V00:00:0000:00:0000:00:00
KE7DJD2026-09-02 17:18:5943.63643-116.1364959°58km/h5674m2.9m/s-17.5°C57.4%0hPa0V00:00:0000:00:0000:00:00
KE7DJD2026-09-02 17:18:3843.63428-116.1401653°55km/h5593m4.5m/s-17.0°C57.8%0hPa0V00:00:0000:00:0000:00:00
KE7DJD2026-09-02 17:18:1843.63224-116.1434048°66km/h5500m5.3m/s-16.3°C59.6%0hPa0V00:00:0000:00:0000:00:00
KE7DJD2026-09-02 17:17:5743.63015-116.1467647°58km/h5404m4.8m/s-15.7°C65.2%0hPa0V00:00:0000:00:0000:00:00
KE7DJD2026-09-02 17:17:3643.62803-116.1503346°53km/h5312m3.0m/s-14.8°C61.9%0hPa0V00:00:0000:00:0000:00:00
KE7DJD2026-09-02 17:17:1643.62592-116.1534743°75km/h5234m4.0m/s-14.1°C59.3%0hPa0V00:00:0000:00:0000:00:00
KE7DJD2026-09-02 17:16:5543.62376-116.1568656°60km/h5129m4.5m/s-13.4°C64.3%0hPa0V00:00:0000:00:0000:00:00
KE7DJD2026-09-02 17:16:3443.62164-116.1599942°49km/h5036m4.9m/s-12.6°C60.0%0hPa0V00:00:0000:00:0000:00:00
KE7DJD2026-09-02 17:16:1443.61946-116.1628234°66km/h4941m4.7m/s-11.8°C49.1%0hPa0V00:00:0000:00:0000:00:00
KE7DJD2026-09-02 17:15:5343.61697-116.1653831°64km/h4830m6.1m/s-11.0°C51.8%0hPa0V00:00:0000:00:0000:00:00
KE7DJD2026-09-02 17:15:3243.61454-116.1680827°58km/h4709m6.5m/s-9.9°C45.6%0hPa0V00:00:0000:00:0000:00:00
KE7DJD2026-09-02 17:15:1143.61172-116.1705745°60km/h4609m5.4m/s-9.1°C42.3%0hPa0V00:00:0000:00:0000:00:00
KE7DJD2026-09-02 17:14:5043.60899-116.1728725°62km/h4502m4.2m/s-8.7°C42.5%0hPa0V00:00:0000:00:0000:00:00
KE7DJD2026-09-02 17:14:2943.60614-116.1748643°58km/h4408m8.4m/s-8.4°C49.1%0hPa0V00:00:0000:00:0000:00:00
KE7DJD2026-09-02 17:14:0843.60339-116.1771624°66km/h4301m6.0m/s-8.1°C54.9%0hPa0V00:00:0000:00:0000:00:00
KE7DJD2026-09-02 17:13:4743.60065-116.1794926°51km/h4195m4.6m/s-7.7°C56.4%0hPa0V00:00:0000:00:0000:00:00
KE7DJD2026-09-02 17:13:2743.59797-116.1815830°68km/h4093m2.9m/s-7.5°C77.7%0hPa0V00:00:0000:00:0000:00:00
KE7DJD2026-09-02 17:13:0643.59537-116.1834834°66km/h3988m4.4m/s-7.1°C89.6%0hPa0V00:00:0000:00:0000:00:00
KE7DJD2026-09-02 17:12:4543.59299-116.1858829°62km/h3876m4.7m/s-6.4°C56.2%0hPa0V00:00:0000:00:0000:00:00
KE7DJD2026-09-02 17:12:2443.59064-116.1872615°55km/h3755m5.4m/s-5.3°C49.5%0hPa0V00:00:0000:00:0000:00:00
KE7DJD2026-09-02 17:12:0443.58857-116.1885624°55km/h3642m8.3m/s-4.2°C46.4%0hPa0V00:00:0000:00:0000:00:00
KE7DJD2026-09-02 17:11:4343.58638-116.1899637°47km/h3518m6.0m/s-3.1°C43.4%0hPa0V00:00:0000:00:0000:00:00
KE7DJD2026-09-02 17:11:2243.58419-116.1910640km/h3415m4.6m/s-2.3°C44.9%0hPa0V00:00:0000:00:0000:00:00
KE7DJD2026-09-02 17:11:0243.58193-116.1919224°27km/h3303m6.8m/s-1.2°C48.9%0hPa0V00:00:0000:00:0000:00:00
KE7DJD2026-09-02 17:10:4143.58014-116.1926053km/h3188m6.7m/s-0.2°C48.9%0hPa0V00:00:0000:00:0000:00:00
KE7DJD2026-09-02 17:10:2043.57817-116.1932315°47km/h3062m5.0m/s0.8°C49.4%0hPa0V00:00:0000:00:0000:00:00
KE7DJD2026-09-02 17:09:5943.57624-116.19361355°38km/h2940m5.3m/s1.9°C47.0%0hPa0V00:00:0000:00:0000:00:00
KE7DJD2026-09-02 17:09:3943.57470-116.19361359°13km/h2818m7.3m/s2.6°C45.4%0hPa0V00:00:0000:00:0000:00:00
KE7DJD2026-09-02 17:09:1843.57405-116.1942425°15km/h2686m5.2m/s3.4°C46.2%0hPa0V00:00:0000:00:0000:00:00
KE7DJD2026-09-02 17:08:5743.57364-116.1947254°22km/h2571m4.4m/s4.5°C43.6%0hPa0V00:00:0000:00:0000:00:00
KE7DJD2026-09-02 17:08:3643.57313-116.19523333°5km/h2466m4.3m/s5.4°C42.5%0hPa0V00:00:0000:00:0000:00:00
KE7DJD2026-09-02 17:08:1543.57262-116.19595120°7km/h2353m5.6m/s6.5°C38.2%0hPa0V00:00:0000:00:0000:00:00
KE7DJD2026-09-02 17:07:5443.57215-116.19666126°13km/h2254m4.8m/s7.4°C36.1%0hPa0V00:00:0000:00:0000:00:00
KE7DJD2026-09-02 17:07:3443.57178-116.1972678°18km/h2141m5.0m/s8.1°C35.2%0hPa0V00:00:0000:00:0000:00:00
KE7DJD2026-09-02 17:07:1343.57130-116.1981970°22km/h2015m5.1m/s9.3°C33.0%0hPa0V00:00:0000:00:0000:00:00
KE7DJD2026-09-02 17:06:5243.57065-116.1991777°24km/h1898m6.0m/s10.4°C31.1%0hPa0V00:00:0000:00:0000:00:00
KE7DJD2026-09-02 17:06:3243.56988-116.2000341°33km/h1799m4.4m/s10.9°C32.7%0hPa0V00:00:0000:00:0000:00:00
KE7DJD2026-09-02 17:06:1243.56921-116.2012329°22km/h1689m7.9m/s11.8°C32.7%0hPa0V00:00:0000:00:0000:00:00
KE7DJD2026-09-02 17:05:5143.56896-116.2025850°29km/h1578m5.3m/s12.9°C0%0hPa0V00:00:0000:00:0000:00:00
KE7DJD2026-09-02 17:05:3143.56864-116.2035445°26km/h1483m4.5m/s0°C0%0hPa0V00:00:0000:00:0000:00:00
KE7DJD2026-09-02 17:05:1143.56825-116.20468134°15km/h1374m5.1m/s0°C0%0hPa0V00:00:0000:00:0000:00:00
KE7DJD2026-09-02 17:04:5043.56793-116.2058773°16km/h1256m4.7m/s0°C0%0hPa0V00:00:0000:00:0000:00:00


GPX KML Map

© wettersonde.net (DO2JMG) - 2026  -  -